Time;durP1;ratioP1;P1;durP2;ratioP2;P2;SDS_P1;SDS_P2;PMS_P1;PMS_P2;Temp;Humidity;BMP_temperature;BMP_pressure;BME280_temperature;BME280_humidity;BME280_pressure;Samples;Min_cycle;Max_cycle;Signal;HPM_P1;HPM_P2
2023/04/16 00:00:49;;;;;;;34.00;17.17;;;;;;;6.39;100.00;101703.06;7393379;19;20411;-36
2023/04/16 00:03:19;;;;;;;36.40;18.73;;;;;;;6.35;100.00;101701.94;7395495;19;20485;-37
2023/04/16 00:05:54;;;;;;;31.97;16.97;;;;;;;6.33;100.00;101691.59;7393865;19;20407;-36
2023/04/16 00:08:25;;;;;;;29.67;16.80;;;;;;;6.33;100.00;101699.28;7395171;19;20822;-36
2023/04/16 00:10:55;;;;;;;32.20;17.13;;;;;;;6.28;100.00;101703.16;7389977;19;20435;-36
2023/04/16 00:13:26;;;;;;;37.60;17.27;;;;;;;6.28;100.00;101695.47;7392193;19;20431;-36
2023/04/16 00:15:55;;;;;;;33.80;16.80;;;;;;;6.29;100.00;101697.25;7391914;19;20407;-36
2023/04/16 00:18:26;;;;;;;30.77;17.10;;;;;;;6.30;100.00;101695.59;7392990;19;20417;-36
2023/04/16 00:20:58;;;;;;;33.60;17.90;;;;;;;6.30;100.00;101693.03;7392016;19;20407;-36
2023/04/16 00:23:28;;;;;;;40.63;19.30;;;;;;;6.23;100.00;101686.53;7393389;19;20443;-36
2023/04/16 00:25:58;;;;;;;31.27;17.83;;;;;;;6.21;100.00;101683.00;7392382;19;20435;-36
2023/04/16 00:28:28;;;;;;;31.50;16.73;;;;;;;6.22;100.00;101684.78;7393073;19;20435;-36
2023/04/16 00:30:58;;;;;;;31.90;18.90;;;;;;;6.36;100.00;101683.19;7391160;19;20770;-36
2023/04/16 00:33:28;;;;;;;30.10;17.20;;;;;;;6.29;100.00;101687.00;7393247;19;20448;-36
2023/04/16 00:36:01;;;;;;;34.03;16.70;;;;;;;6.30;100.00;101678.53;7392263;19;20399;-36
2023/04/16 00:38:31;;;;;;;29.67;17.03;;;;;;;6.38;100.00;101681.66;7392571;19;20407;-36
2023/04/16 00:41:01;;;;;;;30.90;15.90;;;;;;;6.42;100.00;101677.66;7390825;19;20400;-37
2023/04/16 00:43:30;;;;;;;28.10;16.30;;;;;;;6.41;100.00;101686.13;7392308;19;20461;-36
2023/04/16 00:46:00;;;;;;;32.27;16.37;;;;;;;6.35;100.00;101686.56;7391746;19;20411;-36
2023/04/16 00:48:31;;;;;;;33.10;16.17;;;;;;;6.35;100.00;101692.59;7392571;19;20418;-36
2023/04/16 00:51:05;;;;;;;29.97;15.90;;;;;;;6.39;100.00;101682.53;7390941;19;20934;-36
2023/04/16 00:53:35;;;;;;;35.93;16.83;;;;;;;6.41;100.00;101688.69;7392126;19;20522;-36
2023/04/16 00:56:06;;;;;;;37.10;16.97;;;;;;;6.48;100.00;101684.09;7391947;19;20957;-35
2023/04/16 00:58:36;;;;;;;26.40;15.20;;;;;;;6.48;100.00;101683.22;7394457;19;20431;-36
2023/04/16 01:01:07;;;;;;;41.30;17.27;;;;;;;6.54;100.00;101681.13;7390103;19;20434;-36
2023/04/16 01:03:40;;;;;;;27.37;16.17;;;;;;;6.50;100.00;101684.22;7392343;19;20430;-36
2023/04/16 01:06:12;;;;;;;31.50;15.70;;;;;;;6.50;100.00;101691.91;7391439;19;20750;-36
2023/04/16 01:08:42;;;;;;;29.10;16.90;;;;;;;6.49;100.00;101690.13;7394265;19;20457;-36
2023/04/16 01:11:12;;;;;;;25.43;15.43;;;;;;;6.51;100.00;101698.81;7390752;19;20396;-36
2023/04/16 01:13:41;;;;;;;33.30;17.20;;;;;;;6.56;100.00;101697.50;7393015;19;20438;-36
2023/04/16 01:16:13;;;;;;;30.57;16.93;;;;;;;6.58;100.00;101695.97;7390280;19;20779;-36
2023/04/16 01:18:43;;;;;;;28.60;15.47;;;;;;;6.56;100.00;101707.75;7392293;19;20446;-36
2023/04/16 01:21:15;;;;;;;26.70;16.00;;;;;;;6.58;100.00;101715.56;7390239;19;20586;-36
2023/04/16 01:23:44;;;;;;;27.30;14.13;;;;;;;6.57;100.00;101714.66;7392291;19;20451;-36
2023/04/16 01:26:14;;;;;;;30.20;15.37;;;;;;;6.59;100.00;101720.81;7392208;19;20431;-36
2023/04/16 01:28:43;;;;;;;29.47;14.97;;;;;;;6.64;100.00;101720.25;7393854;19;20926;-36
2023/04/16 01:31:13;;;;;;;28.53;14.77;;;;;;;6.58;100.00;101734.41;7388795;19;20419;-36
2023/04/16 01:33:43;;;;;;;28.37;15.03;;;;;;;6.54;100.00;101727.28;7392109;19;20455;-36
2023/04/16 01:36:15;;;;;;;31.30;16.13;;;;;;;6.56;100.00;101729.97;7390697;19;21560;-36
2023/04/16 01:38:44;;;;;;;26.30;14.30;;;;;;;6.58;100.00;101736.97;7391647;19;20400;-37
2023/04/16 01:41:14;;;;;;;27.00;14.30;;;;;;;6.54;100.00;101739.19;7388646;19;20431;-36
2023/04/16 01:43:44;;;;;;;32.10;15.37;;;;;;;6.60;100.00;101745.69;7391371;19;20444;-36
2023/04/16 01:46:16;;;;;;;26.70;15.37;;;;;;;6.69;100.00;101749.69;7389746;19;20462;-36
2023/04/16 01:48:46;;;;;;;30.13;15.13;;;;;;;6.60;100.00;101750.81;7391182;19;20926;-36
2023/04/16 01:51:18;;;;;;;30.07;15.03;;;;;;;6.68;100.00;101751.38;7390168;19;20426;-36
2023/04/16 01:53:48;;;;;;;26.53;14.20;;;;;;;6.68;100.00;101753.03;7391317;19;20459;-36
2023/04/16 01:56:17;;;;;;;22.83;14.13;;;;;;;6.65;100.00;101769.09;7389807;19;20399;-36
2023/04/16 01:58:47;;;;;;;28.73;15.07;;;;;;;6.66;100.00;101765.75;7390484;19;20954;-36
2023/04/16 02:01:16;;;;;;;27.27;15.27;;;;;;;6.64;100.00;101769.88;7389276;19;20407;-37
2023/04/16 02:03:46;;;;;;;27.20;15.87;;;;;;;6.60;100.00;101767.84;7391670;19;20510;-36
2023/04/16 02:06:18;;;;;;;26.50;15.30;;;;;;;6.65;100.00;101768.22;7393483;19;20434;-37
2023/04/16 02:08:48;;;;;;;32.00;15.80;;;;;;;6.66;100.00;101770.88;7400278;19;20412;-38
2023/04/16 02:11:17;;;;;;;25.37;14.73;;;;;;;6.66;100.00;101773.44;7394945;19;20415;-37
2023/04/16 02:13:47;;;;;;;29.20;16.07;;;;;;;6.66;100.00;101770.00;7397298;19;20446;-36
2023/04/16 02:16:16;;;;;;;51.90;25.87;;;;;;;6.82;100.00;101762.63;7395294;19;20962;-36
2023/04/16 02:18:46;;;;;;;47.20;24.50;;;;;;;6.89;100.00;101753.72;7397432;19;20408;-36
2023/04/16 02:21:19;;;;;;;41.30;23.00;;;;;;;6.91;100.00;101756.41;7394903;19;20414;-38
2023/04/16 02:23:50;;;;;;;36.53;19.60;;;;;;;6.87;100.00;101751.03;7396962;19;20450;-36
2023/04/16 02:26:20;;;;;;;34.30;17.60;;;;;;;6.83;100.00;101759.28;7396650;19;20451;-36
2023/04/16 02:28:49;;;;;;;42.03;20.43;;;;;;;6.75;100.00;101756.16;7397471;19;20434;-36
2023/04/16 02:31:21;;;;;;;32.10;18.57;;;;;;;6.86;100.00;101762.09;7394918;19;20415;-36
2023/04/16 02:33:50;;;;;;;32.37;18.00;;;;;;;6.91;100.00;101751.28;7398347;19;20466;-36
2023/04/16 02:36:22;;;;;;;34.00;18.63;;;;;;;6.85;100.00;101757.72;7395584;19;20417;-36
2023/04/16 02:38:52;;;;;;;33.77;18.60;;;;;;;6.86;100.00;101749.25;7393770;19;20797;-37
2023/04/16 02:41:21;;;;;;;32.70;17.20;;;;;;;6.86;100.00;101763.75;7390666;19;20419;-36
2023/04/16 02:43:51;;;;;;;34.40;18.30;;;;;;;6.86;100.00;101756.94;7395833;19;20538;-36
2023/04/16 02:46:20;;;;;;;31.33;18.27;;;;;;;6.91;100.00;101761.53;7390498;19;20938;-36
2023/04/16 02:48:50;;;;;;;34.10;16.83;;;;;;;6.92;100.00;101758.19;7393475;19;20413;-37
2023/04/16 02:51:22;;;;;;;35.27;19.77;;;;;;;6.99;100.00;101761.28;7390770;19;20781;-36
2023/04/16 02:53:52;;;;;;;38.60;20.93;;;;;;;6.95;100.00;101763.53;7393538;19;20431;-36
2023/04/16 02:56:21;;;;;;;38.30;21.30;;;;;;;6.96;100.00;101765.31;7391520;19;20418;-36
2023/04/16 02:58:51;;;;;;;35.73;19.10;;;;;;;6.93;100.00;101771.13;7393457;19;20387;-36
2023/04/16 03:01:20;;;;;;;38.13;16.90;;;;;;;6.88;100.00;101773.34;7390501;19;20407;-36
2023/04/16 03:03:50;;;;;;;38.57;19.97;;;;;;;6.92;100.00;101766.75;7393062;19;20454;-36
2023/04/16 03:06:22;;;;;;;36.20;19.77;;;;;;;6.95;100.00;101776.34;7390965;19;21065;-36
2023/04/16 03:08:52;;;;;;;34.83;18.00;;;;;;;6.96;100.00;101780.69;7393182;19;20387;-38
2023/04/16 03:11:21;;;;;;;34.50;18.87;;;;;;;6.93;100.00;101780.50;7396014;19;20434;-36
2023/04/16 03:13:51;;;;;;;33.70;17.83;;;;;;;6.96;100.00;101790.97;7392987;19;20420;-36
2023/04/16 03:16:20;;;;;;;32.33;17.40;;;;;;;6.95;100.00;101789.19;7390075;19;20415;-36
2023/04/16 03:18:50;;;;;;;29.27;17.20;;;;;;;6.97;100.00;101796.22;7391439;19;20388;-37
2023/04/16 03:21:22;;;;;;;29.93;17.23;;;;;;;7.00;100.00;101792.97;7389946;19;20407;-36
2023/04/16 03:23:52;;;;;;;31.40;18.27;;;;;;;7.07;100.00;101789.19;7392606;19;20454;-37
2023/04/16 03:26:22;;;;;;;39.80;18.83;;;;;;;6.96;100.00;101796.09;7392050;19;20506;-37
2023/04/16 03:28:51;;;;;;;28.13;16.97;;;;;;;6.92;100.00;101800.09;7392734;19;20388;-37
2023/04/16 03:31:21;;;;;;;31.80;17.17;;;;;;;6.93;100.00;101803.59;7390313;19;20434;-36
2023/04/16 03:33:51;;;;;;;33.43;17.37;;;;;;;6.93;100.00;101806.16;7392366;19;20423;-36
2023/04/16 03:36:25;;;;;;;32.83;18.53;;;;;;;6.96;100.00;101808.91;7390538;19;20422;-37
2023/04/16 03:38:55;;;;;;;32.87;17.70;;;;;;;6.98;100.00;101804.81;7392946;19;20741;-37
2023/04/16 03:41:25;;;;;;;31.43;16.77;;;;;;;7.05;100.00;101807.03;7389136;19;20423;-36
2023/04/16 03:43:54;;;;;;;33.47;18.17;;;;;;;7.33;100.00;101791.06;7391861;19;20462;-36
2023/04/16 03:46:24;;;;;;;33.30;19.17;;;;;;;7.32;100.00;101799.53;7390399;19;20434;-37
2023/04/16 03:48:53;;;;;;;45.50;25.50;;;;;;;7.43;100.00;101797.75;7392534;19;20411;-36
2023/04/16 03:51:25;;;;;;;63.13;33.43;;;;;;;7.48;100.00;101803.22;7389253;19;20514;-36
2023/04/16 03:53:55;;;;;;;35.53;18.03;;;;;;;7.60;100.00;101804.09;7392152;19;20767;-36
2023/04/16 03:56:25;;;;;;;34.93;17.83;;;;;;;7.47;100.00;101816.81;7389813;19;20427;-37
2023/04/16 03:58:54;;;;;;;37.57;20.50;;;;;;;7.53;100.00;101819.81;7393373;19;20398;-36
2023/04/16 04:01:24;;;;;;;26.50;16.30;;;;;;;7.52;100.00;101833.47;7389139;19;20411;-36
2023/04/16 04:03:53;;;;;;;32.17;17.17;;;;;;;7.36;100.00;101842.66;7391160;19;20435;-38
2023/04/16 04:06:26;;;;;;;28.57;16.13;;;;;;;7.35;100.00;101848.56;7389452;19;20857;-36
2023/04/16 04:08:56;;;;;;;34.80;18.23;;;;;;;7.53;100.00;101842.94;7391643;19;20391;-37
2023/04/16 04:11:25;;;;;;;29.40;17.30;;;;;;;7.48;100.00;101849.44;7389602;19;20415;-36
2023/04/16 04:13:55;;;;;;;27.43;16.60;;;;;;;7.58;100.00;101857.00;7391512;19;20427;-37
2023/04/16 04:16:24;;;;;;;30.57;15.80;;;;;;;7.38;100.00;101861.59;7388903;19;20953;-37
2023/04/16 04:18:54;;;;;;;30.07;16.27;;;;;;;7.23;100.00;101873.34;7394368;19;20395;-36
2023/04/16 04:21:27;;;;;;;28.23;15.60;;;;;;;7.18;100.00;101869.53;7388362;19;20407;-37
2023/04/16 04:23:56;;;;;;;26.80;15.70;;;;;;;7.14;100.00;101866.72;7391062;19;20443;-37
2023/04/16 04:26:26;;;;;;;31.83;15.47;;;;;;;7.15;100.00;101873.69;7389132;19;20442;-37
2023/04/16 04:28:55;;;;;;;30.13;16.37;;;;;;;7.10;100.00;101879.22;7390101;19;20387;-36
2023/04/16 04:31:25;;;;;;;29.97;16.63;;;;;;;7.11;100.00;101874.22;7388248;19;20965;-36
2023/04/16 04:33:54;;;;;;;31.40;15.90;;;;;;;7.04;100.00;101879.69;7390385;19;20496;-37
2023/04/16 04:36:27;;;;;;;27.87;16.20;;;;;;;7.06;100.00;101864.38;7388749;19;20403;-36
2023/04/16 04:38:56;;;;;;;26.83;15.77;;;;;;;6.99;100.00;101871.63;7391152;19;20392;-37
2023/04/16 04:41:26;;;;;;;28.57;16.43;;;;;;;7.05;100.00;101873.78;7386938;19;20430;-36
2023/04/16 04:43:55;;;;;;;29.53;16.40;;;;;;;7.06;100.00;101864.38;7390700;19;20438;-36
2023/04/16 04:46:25;;;;;;;29.03;15.53;;;;;;;6.99;100.00;101863.06;7388181;19;20934;-37
2023/04/16 04:48:54;;;;;;;26.30;15.50;;;;;;;7.03;100.00;101859.94;7390226;19;20391;-36
2023/04/16 04:51:26;;;;;;;26.23;16.30;;;;;;;7.05;100.00;101852.34;7387982;19;20411;-36
2023/04/16 04:53:56;;;;;;;29.73;16.70;;;;;;;7.07;100.00;101854.22;7390410;19;20446;-36
2023/04/16 04:56:25;;;;;;;26.60;14.97;;;;;;;7.10;100.00;101857.03;7388479;19;20426;-36
2023/04/16 04:58:56;;;;;;;29.33;15.70;;;;;;;7.07;100.00;101861.94;7389939;19;20949;-36
2023/04/16 05:01:26;;;;;;;32.33;15.90;;;;;;;7.06;100.00;101865.28;7387610;19;20415;-36
2023/04/16 05:03:55;;;;;;;28.77;16.37;;;;;;;7.06;100.00;101866.94;7389716;19;20439;-37
2023/04/16 05:06:28;;;;;;;38.87;16.90;;;;;;;7.03;100.00;101870.22;7387886;19;20422;-36
2023/04/16 05:08:57;;;;;;;28.67;16.33;;;;;;;7.06;100.00;101872.06;7391973;19;20398;-37
2023/04/16 05:11:27;;;;;;;32.17;16.57;;;;;;;7.13;100.00;101862.38;7387323;19;20415;-36
2023/04/16 05:13:57;;;;;;;32.93;17.00;;;;;;;7.10;100.00;101872.44;7390447;19;20454;-38
2023/04/16 05:16:26;;;;;;;26.67;15.93;;;;;;;7.12;100.00;101867.41;7387524;19;20427;-37
2023/04/16 05:18:56;;;;;;;28.57;16.20;;;;;;;7.12;100.00;101870.88;7391002;19;20410;-37
2023/04/16 05:21:28;;;;;;;31.53;18.00;;;;;;;7.12;100.00;101864.81;7386592;19;20414;-40
2023/04/16 05:23:58;;;;;;;34.47;16.30;;;;;;;7.13;100.00;101871.78;7389577;19;20478;-36
2023/04/16 05:26:28;;;;;;;30.87;17.10;;;;;;;7.13;100.00;101885.47;7387274;19;20826;-36
2023/04/16 05:28:57;;;;;;;29.23;16.70;;;;;;;7.14;100.00;101883.81;7388991;19;20395;-37
2023/04/16 05:31:27;;;;;;;31.80;16.60;;;;;;;7.20;100.00;101883.38;7387675;19;20434;-36
2023/04/16 05:33:57;;;;;;;31.73;16.97;;;;;;;7.16;100.00;101888.28;7389139;19;20880;-37
2023/04/16 05:36:29;;;;;;;28.47;17.23;;;;;;;7.20;100.00;101894.53;7387971;19;20969;-36
2023/04/16 05:38:59;;;;;;;27.90;16.87;;;;;;;7.24;100.00;101891.41;7388595;19;20970;-37
2023/04/16 05:41:28;;;;;;;32.50;17.20;;;;;;;7.29;100.00;101909.72;7389867;19;20423;-37
2023/04/16 05:43:58;;;;;;;32.23;17.47;;;;;;;7.30;100.00;101911.53;7394854;19;20435;-36
2023/04/16 05:46:27;;;;;;;30.20;16.40;;;;;;;7.34;100.00;101913.50;7395109;19;20403;-36
2023/04/16 05:48:57;;;;;;;32.80;17.27;;;;;;;7.25;100.00;101929.16;7395030;19;20399;-36
2023/04/16 05:51:29;;;;;;;31.20;16.93;;;;;;;7.30;100.00;101926.91;7395905;19;20426;-36
2023/04/16 05:53:58;;;;;;;29.70;16.83;;;;;;;7.33;100.00;101927.13;7394940;19;20434;-36
2023/04/16 05:56:28;;;;;;;31.27;15.47;;;;;;;7.37;100.00;101934.28;7393084;19;20411;-37
2023/04/16 05:58:57;;;;;;;28.67;16.90;;;;;;;7.36;100.00;101935.06;7394973;19;20414;-37
2023/04/16 06:01:27;;;;;;;29.47;17.10;;;;;;;7.45;100.00;101929.72;7392325;19;20411;-36
2023/04/16 06:03:56;;;;;;;29.90;17.10;;;;;;;7.49;100.00;101943.69;7394602;19;20443;-37
2023/04/16 06:06:29;;;;;;;26.30;15.90;;;;;;;7.48;100.00;101945.34;7392844;19;20411;-36
2023/04/16 06:08:58;;;;;;;29.30;16.80;;;;;;;7.52;100.00;101949.03;7394987;19;20406;-36
2023/04/16 06:11:29;;;;;;;28.37;15.97;;;;;;;7.50;100.00;101948.03;7392254;19;20438;-36
2023/04/16 06:13:58;;;;;;;29.50;15.90;;;;;;;7.50;100.00;101955.75;7394752;19;20454;-36
2023/04/16 06:16:28;;;;;;;29.43;16.60;;;;;;;7.55;100.00;101957.84;7389483;19;20743;-36
2023/04/16 06:18:58;;;;;;;27.80;16.30;;;;;;;7.59;100.00;101966.66;7399927;19;20413;-36
2023/04/16 06:21:30;;;;;;;25.07;14.90;;;;;;;7.60;100.00;101968.50;7391612;19;20411;-36
2023/04/16 06:24:00;;;;;;;33.53;18.10;;;;;;;7.64;100.00;101973.03;7393871;19;20423;-37
2023/04/16 06:26:29;;;;;;;29.73;17.37;;;;;;;7.64;100.00;101970.47;7392352;19;20426;-36
2023/04/16 06:28:59;;;;;;;26.93;15.20;;;;;;;7.60;100.00;101983.00;7394135;19;20414;-36
2023/04/16 06:31:28;;;;;;;29.47;16.80;;;;;;;7.59;100.00;101987.22;7391108;19;20938;-36
2023/04/16 06:33:58;;;;;;;29.50;17.17;;;;;;;7.62;100.00;101987.47;7394202;19;20437;-36
2023/04/16 06:36:30;;;;;;;24.60;14.90;;;;;;;7.58;100.00;101995.72;7392035;19;20419;-36
2023/04/16 06:39:00;;;;;;;29.43;16.10;;;;;;;7.64;100.00;102003.00;7394201;19;20387;-36
2023/04/16 06:41:29;;;;;;;32.57;16.60;;;;;;;7.69;100.00;102005.09;7390534;19;20407;-36
2023/04/16 06:43:59;;;;;;;28.30;15.47;;;;;;;7.69;100.00;102010.25;7393715;19;20423;-36
2023/04/16 06:46:28;;;;;;;28.00;15.77;;;;;;;7.70;100.00;102018.88;7391658;19;20419;-38
2023/04/16 06:48:58;;;;;;;27.63;14.37;;;;;;;7.77;100.00;102022.75;7394497;19;20399;-38
2023/04/16 06:51:30;;;;;;;33.47;15.90;;;;;;;7.76;100.00;102033.81;7392239;19;20423;-36
2023/04/16 06:54:00;;;;;;;33.63;17.10;;;;;;;7.75;100.00;102030.34;7394524;19;20974;-36
2023/04/16 06:56:29;;;;;;;29.53;16.00;;;;;;;7.76;100.00;102049.25;7392477;19;20838;-36
2023/04/16 06:58:59;;;;;;;25.00;15.07;;;;;;;7.72;100.00;102045.53;7393775;19;20426;-38
2023/04/16 07:01:30;;;;;;;30.57;16.27;;;;;;;7.83;100.00;102046.34;7391314;19;20434;-36
2023/04/16 07:03:59;;;;;;;29.50;15.30;;;;;;;7.84;100.00;102053.25;7393462;19;20435;-38
2023/04/16 07:06:32;;;;;;;34.30;17.40;;;;;;;7.86;100.00;102063.66;7390728;19;20407;-36
2023/04/16 07:09:01;;;;;;;25.73;14.40;;;;;;;7.86;100.00;102064.56;7396923;19;20422;-36
2023/04/16 07:11:31;;;;;;;33.37;16.93;;;;;;;7.84;100.00;102076.38;7390299;19;20430;-36
2023/04/16 07:14:01;;;;;;;27.50;15.30;;;;;;;7.86;100.00;102079.06;7394063;19;20458;-38
2023/04/16 07:16:30;;;;;;;26.40;14.13;;;;;;;7.85;100.00;102093.63;7387512;19;20461;-37
2023/04/16 07:19:00;;;;;;;27.10;15.17;;;;;;;7.91;100.00;102095.75;7396109;19;20419;-35
2023/04/16 07:21:32;;;;;;;25.03;15.00;;;;;;;7.92;100.00;102095.84;7392155;19;20460;-36
2023/04/16 07:24:02;;;;;;;28.13;14.97;;;;;;;7.94;100.00;102098.50;7396969;19;20447;-37
2023/04/16 07:26:32;;;;;;;28.90;15.40;;;;;;;7.97;100.00;102104.81;7393084;19;20918;-38
2023/04/16 07:29:01;;;;;;;28.93;15.30;;;;;;;7.92;100.00;102111.28;7396613;19;20407;-35
2023/04/16 07:31:31;;;;;;;21.43;12.83;;;;;;;7.92;100.00;102103.56;7392133;19;20470;-36
2023/04/16 07:34:01;;;;;;;26.00;13.80;;;;;;;7.93;100.00;102118.19;7397164;19;20457;-35
2023/04/16 07:36:33;;;;;;;23.43;14.73;;;;;;;7.98;100.00;102121.09;7395195;19;20891;-36
2023/04/16 07:39:02;;;;;;;26.13;14.43;;;;;;;8.03;100.00;102124.91;7395966;19;20403;-36
2023/04/16 07:41:32;;;;;;;22.37;14.10;;;;;;;8.09;100.00;102129.59;7391113;19;20458;-36
2023/04/16 07:44:01;;;;;;;23.60;12.73;;;;;;;8.17;100.00;102135.31;7394972;19;20424;-37
2023/04/16 07:46:31;;;;;;;27.03;14.77;;;;;;;8.26;100.00;102142.81;7391766;19;20450;-37
2023/04/16 07:49:15;;;;;;;23.00;14.27;;;;;;;8.26;100.00;102160.81;7395970;19;20411;-36
2023/04/16 07:51:48;;;;;;;23.47;13.90;;;;;;;8.32;100.00;102156.13;7391964;19;20997;-36
2023/04/16 07:54:18;;;;;;;51.60;19.47;;;;;;;8.35;100.00;102164.97;7396031;19;20443;-37
2023/04/16 07:56:48;;;;;;;35.83;16.20;;;;;;;8.36;100.00;102161.59;7394025;19;20439;-38
2023/04/16 07:59:17;;;;;;;29.20;16.13;;;;;;;8.37;100.00;102167.66;7396072;19;20438;-36
2023/04/16 08:01:54;;;;;;;26.40;14.47;;;;;;;8.41;100.00;102173.91;7393110;19;20445;-36
2023/04/16 08:04:26;;;;;;;22.43;12.77;;;;;;;8.47;100.00;102177.81;7394661;19;20455;-36
2023/04/16 08:06:58;;;;;;;25.00;14.40;;;;;;;8.47;100.00;102179.50;7392840;19;20443;-38
2023/04/16 08:09:28;;;;;;;27.80;14.03;;;;;;;8.43;100.00;102185.19;7395705;19;20449;-36
2023/04/16 08:11:58;;;;;;;26.87;13.60;;;;;;;8.45;100.00;102189.69;7391612;19;20978;-36
2023/04/16 08:14:28;;;;;;;48.17;17.83;;;;;;;8.44;100.00;102200.75;7395982;19;20458;-36
2023/04/16 08:16:57;;;;;;;21.80;12.47;;;;;;;8.48;100.00;102199.28;7392403;19;20440;-36
2023/04/16 08:19:27;;;;;;;29.47;14.30;;;;;;;8.48;100.00;102197.63;7394802;19;20955;-36
2023/04/16 08:21:59;;;;;;;29.13;15.10;;;;;;;8.53;100.00;102194.50;7391430;19;20474;-36
2023/04/16 08:24:28;;;;;;;22.63;13.60;;;;;;;8.53;100.00;102199.66;7395732;19;20451;-36
2023/04/16 08:26:58;;;;;;;27.17;13.93;;;;;;;8.47;100.00;102200.97;7391155;19;20439;-36
2023/04/16 08:29:43;;;;;;;25.53;14.27;;;;;;;8.54;100.00;102206.59;7393813;19;20466;-36
2023/04/16 08:32:13;;;;;;;26.30;14.47;;;;;;;8.66;100.00;102207.47;7392274;19;20454;-36
2023/04/16 08:34:43;;;;;;;26.10;13.73;;;;;;;8.69;100.00;102211.97;7393481;19;20440;-36
2023/04/16 08:37:15;;;;;;;24.87;14.50;;;;;;;8.69;100.00;102212.88;7392399;19;20450;-36
2023/04/16 08:39:44;;;;;;;25.53;14.17;;;;;;;8.65;100.00;102213.41;7393253;19;20406;-36
2023/04/16 08:42:22;;;;;;;27.73;15.10;;;;;;;8.61;100.00;102214.00;7390895;19;20440;-36
2023/04/16 08:44:54;;;;;;;27.40;14.67;;;;;;;8.64;100.00;102224.50;7393018;19;20815;-36
2023/04/16 08:47:25;;;;;;;30.13;14.57;;;;;;;8.66;100.00;102217.78;7392842;19;20462;-36
2023/04/16 08:49:57;;;;;;;36.03;15.47;;;;;;;8.74;100.00;102216.69;7395448;19;20442;-36
2023/04/16 08:52:31;;;;;;;35.60;14.83;;;;;;;8.82;100.00;102216.34;7392082;19;21012;-36
2023/04/16 08:55:05;;;;;;;40.00;18.63;;;;;;;8.98;100.00;102220.91;7393898;19;20800;-36
2023/04/16 08:57:41;;;;;;;21.53;13.70;;;;;;;9.15;100.00;102215.28;7391447;19;20788;-36
2023/04/16 09:00:11;;;;;;;31.03;13.30;;;;;;;9.26;100.00;102228.91;7394492;19;20407;-36
2023/04/16 09:02:41;;;;;;;50.50;18.70;;;;;;;9.34;100.00;102206.28;7391235;19;20989;-38
2023/04/16 09:05:16;;;;;;;20.50;12.40;;;;;;;9.36;100.00;102217.56;7393909;19;20443;-36
2023/04/16 09:07:49;;;;;;;23.77;13.57;;;;;;;9.41;100.00;102212.75;7391356;19;20817;-36
2023/04/16 09:10:19;;;;;;;22.60;12.10;;;;;;;9.40;100.00;102213.53;7393650;19;20419;-36
2023/04/16 09:12:48;;;;;;;33.73;16.53;;;;;;;9.50;100.00;102218.56;7391393;19;20450;-36
2023/04/16 09:15:18;;;;;;;23.60;14.90;;;;;;;9.61;100.00;102228.69;7390837;19;20412;-36
2023/04/16 09:17:47;;;;;;;21.33;12.43;;;;;;;9.44;100.00;102223.28;7390537;19;20439;-36
2023/04/16 09:20:17;;;;;;;32.53;15.67;;;;;;;9.31;100.00;102226.66;7393387;19;20427;-36
2023/04/16 09:22:50;;;;;;;28.87;15.13;;;;;;;9.43;100.00;102230.09;7391101;19;20443;-36
2023/04/16 09:25:22;;;;;;;30.50;14.97;;;;;;;9.31;100.00;102237.88;7393704;19;20404;-36
2023/04/16 09:27:52;;;;;;;21.70;13.60;;;;;;;9.48;100.00;102232.09;7390884;19;20450;-36
2023/04/16 09:30:24;;;;;;;90.10;45.07;;;;;;;9.71;100.00;102241.44;7393485;19;20419;-36
2023/04/16 09:32:54;;;;;;;31.50;17.33;;;;;;;9.89;100.00;102239.22;7389868;19;20438;-37
2023/04/16 09:35:24;;;;;;;35.87;16.43;;;;;;;9.51;100.00;102240.03;7393238;19;20408;-36
2023/04/16 09:38:00;;;;;;;45.33;21.10;;;;;;;9.36;100.00;102250.16;7390934;19;20462;-36
2023/04/16 09:40:30;;;;;;;35.80;19.87;;;;;;;9.47;100.00;102243.22;7393246;19;20410;-36
2023/04/16 09:43:00;;;;;;;36.50;20.33;;;;;;;9.62;100.00;102243.34;7389801;19;20443;-36
2023/04/16 09:45:33;;;;;;;48.57;26.57;;;;;;;9.83;100.00;102249.09;7395353;19;20396;-36
2023/04/16 09:48:06;;;;;;;25.27;15.87;;;;;;;9.96;100.00;102250.84;7390638;19;20451;-37
2023/04/16 09:50:36;;;;;;;26.27;16.37;;;;;;;9.81;100.00;102254.19;7392859;19;20422;-37
2023/04/16 09:53:08;;;;;;;24.87;14.77;;;;;;;10.02;100.00;102246.09;7391610;19;20443;-36
2023/04/16 09:55:38;;;;;;;20.87;12.67;;;;;;;9.71;100.00;102247.47;7392640;19;20931;-36
2023/04/16 09:58:07;;;;;;;20.37;13.10;;;;;;;9.64;100.00;102252.97;7391103;19;20986;-36
2023/04/16 10:00:37;;;;;;;26.27;14.87;;;;;;;9.50;100.00;102254.63;7390754;19;20820;-47
2023/04/16 10:03:11;;;;;;;22.53;13.57;;;;;;;9.39;100.00;102253.84;7391038;19;20477;-37
2023/04/16 10:05:42;;;;;;;24.40;13.30;;;;;;;9.49;100.00;102257.97;7390747;19;20923;-36
2023/04/16 10:08:18;;;;;;;22.17;14.03;;;;;;;9.57;100.00;102259.41;7389081;19;20447;-36
2023/04/16 10:10:47;;;;;;;26.43;13.33;;;;;;;9.50;100.00;102259.78;7390605;19;20410;-36
2023/04/16 10:13:18;;;;;;;22.50;13.40;;;;;;;9.26;100.00;102261.50;7390972;19;20581;-36
2023/04/16 10:15:47;;;;;;;23.53;13.43;;;;;;;9.19;100.00;102262.75;7390817;19;20411;-36
2023/04/16 10:18:17;;;;;;;22.77;12.90;;;;;;;9.04;100.00;102278.88;7390621;19;20932;-36
2023/04/16 10:20:47;;;;;;;22.07;11.93;;;;;;;9.09;100.00;102273.16;7390009;19;20748;-37
2023/04/16 10:23:19;;;;;;;28.73;13.53;;;;;;;9.15;100.00;102273.59;7390509;19;20466;-36
2023/04/16 10:25:50;;;;;;;23.97;14.67;;;;;;;9.17;100.00;102274.59;7390040;19;21296;-36
2023/04/16 10:28:20;;;;;;;25.30;14.40;;;;;;;9.03;100.00;102276.22;7397936;19;21014;-36
2023/04/16 10:30:53;;;;;;;32.80;14.70;;;;;;;9.11;100.00;102275.06;7396031;19;20766;-36
2023/04/16 10:33:24;;;;;;;20.07;13.23;;;;;;;9.16;100.00;102272.81;7397882;19;20512;-36
2023/04/16 10:35:55;;;;;;;29.33;16.37;;;;;;;9.14;100.00;102272.69;7395541;19;20427;-36
2023/04/16 10:38:41;;;;;;;22.60;13.83;;;;;;;9.03;100.00;102277.09;7396711;19;20420;-36
2023/04/16 10:41:11;;;;;;;27.30;14.27;;;;;;;9.00;100.00;102287.16;7394628;19;20419;-36
2023/04/16 10:43:42;;;;;;;26.87;13.57;;;;;;;8.96;100.00;102284.28;7396076;19;20462;-36
2023/04/16 10:46:22;;;;;;;24.93;13.53;;;;;;;8.91;100.00;102283.91;7395964;19;20430;-36
2023/04/16 10:48:54;;;;;;;26.70;13.77;;;;;;;9.05;100.00;102290.97;7397816;19;20403;-36
2023/04/16 10:51:31;;;;;;;22.17;13.30;;;;;;;8.99;100.00;102287.97;7394554;19;20407;-36
2023/04/16 10:54:22;;;;;;;24.30;13.90;;;;;;;8.96;100.00;102285.16;7396987;19;20475;-36
2023/04/16 10:56:52;;;;;;;25.10;15.10;;;;;;;8.97;100.00;102292.09;7394503;19;20439;-36
2023/04/16 10:59:22;;;;;;;25.73;14.00;;;;;;;9.12;100.00;102291.44;7398039;19;20446;-36
2023/04/16 11:01:53;;;;;;;24.43;14.20;;;;;;;8.98;100.00;102283.56;7394060;19;20439;-37
2023/04/16 11:04:31;;;;;;;25.00;13.80;;;;;;;8.99;100.00;102290.53;7397547;19;20458;-37
2023/04/16 11:07:05;;;;;;;26.37;14.33;;;;;;;9.08;100.00;102290.28;7394026;19;21012;-36
2023/04/16 11:09:49;;;;;;;28.60;15.33;;;;;;;9.04;100.00;102284.00;7395875;19;20403;-36
2023/04/16 11:12:20;;;;;;;26.87;15.33;;;;;;;8.99;100.00;102293.09;7395527;19;20431;-36
2023/04/16 11:14:50;;;;;;;25.50;14.07;;;;;;;9.09;100.00;102288.63;7395528;19;20443;-36
2023/04/16 11:17:21;;;;;;;24.63;15.33;;;;;;;9.03;100.00;102286.50;7396319;19;20447;-36
2023/04/16 11:19:51;;;;;;;27.03;15.87;;;;;;;9.02;100.00;102289.84;7394679;19;20415;-37
2023/04/16 11:22:22;;;;;;;34.80;16.40;;;;;;;9.22;100.00;102293.84;7395085;19;20460;-36
2023/04/16 11:24:58;;;;;;;22.70;14.03;;;;;;;9.08;100.00;102287.69;7395069;19;20471;-36